Time;durP1;ratioP1;P1;durP2;ratioP2;P2;SDS_P1;SDS_P2;PMS_P1;PMS_P2;Temp;Humidity;BMP_temperature;BMP_pressure;BME280_temperature;BME280_humidity;BME280_pressure;Samples;Min_cycle;Max_cycle;Signal;HPM_P1;HPM_P2
2022/02/02 00:01:47;;;;;;;3.90;2.20;;;;;;;;;;5051390;28;21011;-68
2022/02/02 00:04:19;;;;;;;3.10;2.40;;;;;;;;;;5052463;28;20484;-68
2022/02/02 00:06:58;;;;;;;4.23;2.40;;;;;;;;;;5051273;28;20447;-68
2022/02/02 00:09:26;;;;;;;2.50;1.80;;;;;;;;;;5050900;28;20565;-68
2022/02/02 00:14:54;;;;;;;4.30;2.13;;;;;;;;;;5051863;28;20434;-69
2022/02/02 00:17:36;;;;;;;4.83;2.10;;;;;;;;;;5052279;28;20529;-69
2022/02/02 00:20:15;;;;;;;3.60;2.00;;;;;;;;;;5051641;28;20442;-69
2022/02/02 00:22:44;;;;;;;3.50;2.30;;;;;;;;;;5051102;28;20446;-67
2022/02/02 00:25:16;;;;;;;3.57;1.90;;;;;;;;;;5051429;28;20508;-68
2022/02/02 00:27:46;;;;;;;3.57;2.03;;;;;;;;;;5041367;28;20926;-68
2022/02/02 00:30:17;;;;;;;2.17;1.70;;;;;;;;;;5051651;28;20434;-68
2022/02/02 00:33:16;;;;;;;2.23;1.30;;;;;;;;;;5053180;28;20450;-69
2022/02/02 00:35:53;;;;;;;2.50;1.50;;;;;;;;;;5055648;28;20794;-68
2022/02/02 00:38:20;;;;;;;1.70;1.33;;;;;;;;;;5053092;28;20465;-68
2022/02/02 00:40:48;;;;;;;2.60;1.90;;;;;;;;;;5050438;28;20631;-68
2022/02/02 00:43:15;;;;;;;3.20;2.13;;;;;;;;;;5051410;28;20492;-67
2022/02/02 00:45:45;;;;;;;6.50;2.10;;;;;;;;;;5050581;28;20442;-66
2022/02/02 00:48:15;;;;;;;2.90;1.47;;;;;;;;;;5051336;28;20461;-66
2022/02/02 00:50:43;;;;;;;3.90;1.60;;;;;;;;;;5050646;28;20457;-69
2022/02/02 00:53:10;;;;;;;2.47;1.20;;;;;;;;;;5051949;28;20960;-67
2022/02/02 00:55:37;;;;;;;3.47;1.20;;;;;;;;;;5050392;28;20458;-66
2022/02/02 00:58:05;;;;;;;2.37;1.27;;;;;;;;;;5051504;28;20962;-67
2022/02/02 01:00:33;;;;;;;4.53;1.40;;;;;;;;;;5050251;28;20450;-67
2022/02/02 01:03:00;;;;;;;5.20;1.40;;;;;;;;;;5051217;28;20450;-66
2022/02/02 01:05:29;;;;;;;2.33;1.20;;;;;;;;;;5051045;28;20454;-66
2022/02/02 01:08:21;;;;;;;2.17;1.00;;;;;;;;;;5039405;28;20511;-66
2022/02/02 01:10:59;;;;;;;3.63;1.60;;;;;;;;;;5050011;28;20811;-66
2022/02/02 01:19:25;;;;;;;1.90;1.13;;;;;;;;;;5128243;28;20890;-67
2022/02/02 01:21:58;;;;;;;3.03;1.63;;;;;;;;;;5128398;27;20786;-67
2022/02/02 01:29:55;;;;;;;2.30;1.37;;;;;;;;;;5128270;28;20786;-68
2022/02/02 01:32:23;;;;;;;2.50;1.53;;;;;;;;;;5128506;27;20446;-69
2022/02/02 01:34:51;;;;;;;8.10;1.80;;;;;;;;;;5128133;28;20475;-67
2022/02/02 01:37:19;;;;;;;4.80;1.70;;;;;;;;;;5119438;28;20480;-68
2022/02/02 01:39:48;;;;;;;6.10;1.30;;;;;;;;;;5123663;28;20737;-68
2022/02/02 01:42:18;;;;;;;3.13;1.43;;;;;;;;;;5123348;27;20497;-67
2022/02/02 01:44:51;;;;;;;3.80;1.70;;;;;;;;;;5122527;27;20458;-68
2022/02/02 01:47:18;;;;;;;3.23;1.10;;;;;;;;;;5118691;28;20473;-67
2022/02/02 01:50:13;;;;;;;4.40;1.80;;;;;;;;;;5125175;28;20461;-68
2022/02/02 01:53:01;;;;;;;2.30;1.50;;;;;;;;;;5118825;28;20509;-68
2022/02/02 01:55:38;;;;;;;5.60;1.90;;;;;;;;;;5119162;28;20463;-68
2022/02/02 01:58:15;;;;;;;3.43;1.27;;;;;;;;;;5127296;27;20447;-68
2022/02/02 02:00:42;;;;;;;3.73;1.20;;;;;;;;;;5126227;27;20913;-68
2022/02/02 02:03:09;;;;;;;2.97;1.97;;;;;;;;;;5127738;27;20537;-68
2022/02/02 02:05:38;;;;;;;8.83;2.10;;;;;;;;;;5127306;27;20453;-68
2022/02/02 02:08:05;;;;;;;6.33;1.50;;;;;;;;;;5128030;27;20454;-67
2022/02/02 02:10:32;;;;;;;5.73;2.20;;;;;;;;;;5126212;27;20483;-68
2022/02/02 02:13:05;;;;;;;3.60;1.87;;;;;;;;;;5126520;27;20617;-68
2022/02/02 02:15:32;;;;;;;4.57;2.80;;;;;;;;;;5126321;27;20965;-68
2022/02/02 02:18:00;;;;;;;6.37;1.60;;;;;;;;;;5128033;27;20454;-68
2022/02/02 02:20:29;;;;;;;5.47;1.80;;;;;;;;;;5127168;27;20541;-68
2022/02/02 02:22:57;;;;;;;3.37;1.87;;;;;;;;;;5127883;27;20443;-67
2022/02/02 02:25:25;;;;;;;9.63;2.00;;;;;;;;;;5123362;28;20442;-68
2022/02/02 02:27:55;;;;;;;5.83;1.80;;;;;;;;;;5113385;28;20875;-68
2022/02/02 02:30:28;;;;;;;5.30;2.27;;;;;;;;;;5114047;28;20530;-68
2022/02/02 02:33:26;;;;;;;4.60;2.40;;;;;;;;;;5113951;28;20439;-68
2022/02/02 02:55:52;;;;;;;10.33;3.23;;;;;;;;;;5048059;28;20512;-68
2022/02/02 02:58:35;;;;;;;9.67;3.30;;;;;;;;;;5081499;28;20931;-68
2022/02/02 03:01:16;;;;;;;6.83;3.03;;;;;;;;;;5113374;28;20977;-68
2022/02/02 03:31:31;;;;;;;3.57;1.90;;;;;;;;;;5101637;28;20433;-69
2022/02/02 03:56:29;;;;;;;6.90;2.93;;;;;;;;;;5103988;28;20471;-69
2022/02/02 04:04:40;;;;;;;7.93;2.50;;;;;;;;;;5097641;28;20444;-69
2022/02/02 04:07:15;;;;;;;3.93;2.30;;;;;;;;;;5111696;28;20447;-69
2022/02/02 04:09:43;;;;;;;6.83;2.20;;;;;;;;;;5110889;28;20439;-69
2022/02/02 04:12:18;;;;;;;5.03;2.10;;;;;;;;;;5109168;28;20452;-69
2022/02/02 04:15:48;;;;;;;10.10;2.57;;;;;;;;;;5101372;28;20478;-69
2022/02/02 04:51:33;;;;;;;4.40;2.27;;;;;;;;;;5111376;28;20469;-72
2022/02/02 04:59:40;;;;;;;10.40;2.70;;;;;;;;;;5095009;28;20440;-71
2022/02/02 05:08:01;;;;;;;8.57;2.67;;;;;;;;;;5040815;28;20439;-72
2022/02/02 05:10:36;;;;;;;3.57;2.47;;;;;;;;;;5047381;28;20438;-71
2022/02/02 05:14:10;;;;;;;14.10;3.40;;;;;;;;;;5082034;28;20807;-71
2022/02/02 05:19:28;;;;;;;8.50;3.20;;;;;;;;;;5069445;28;20816;-72
2022/02/02 05:44:40;;;;;;;7.30;2.07;;;;;;;;;;5120559;28;20472;-71
2022/02/02 05:50:11;;;;;;;8.60;3.00;;;;;;;;;;5110445;28;20422;-71
2022/02/02 05:52:38;;;;;;;7.83;2.50;;;;;;;;;;5109630;28;20523;-71
2022/02/02 05:55:06;;;;;;;11.17;3.37;;;;;;;;;;5110610;28;20566;-71
2022/02/02 05:57:40;;;;;;;5.90;2.07;;;;;;;;;;5109594;28;20923;-71
2022/02/02 06:00:07;;;;;;;6.30;2.33;;;;;;;;;;5111222;28;20453;-71
2022/02/02 06:02:38;;;;;;;5.70;3.00;;;;;;;;;;5112537;28;20440;-72
2022/02/02 06:05:07;;;;;;;12.37;2.43;;;;;;;;;;5114579;28;20467;-71
2022/02/02 06:07:35;;;;;;;14.30;4.10;;;;;;;;;;5113987;28;20450;-71
2022/02/02 06:10:02;;;;;;;7.43;2.53;;;;;;;;;;5114758;28;20451;-71
2022/02/02 06:12:30;;;;;;;13.63;4.60;;;;;;;;;;5113244;28;20475;-70
2022/02/02 06:14:59;;;;;;;6.17;2.33;;;;;;;;;;5114264;28;20476;-71
2022/02/02 06:17:28;;;;;;;9.10;2.53;;;;;;;;;;5113950;28;20473;-71
2022/02/02 06:19:56;;;;;;;5.47;2.30;;;;;;;;;;5114332;27;20493;-71
2022/02/02 06:22:24;;;;;;;7.73;2.70;;;;;;;;;;5113876;28;20801;-71
2022/02/02 06:24:54;;;;;;;4.93;2.40;;;;;;;;;;5113271;28;20497;-71
2022/02/02 06:27:23;;;;;;;5.00;2.00;;;;;;;;;;5114169;28;20806;-71
2022/02/02 06:29:53;;;;;;;8.40;2.83;;;;;;;;;;5113544;28;20479;-71
2022/02/02 06:32:24;;;;;;;8.13;2.80;;;;;;;;;;5113600;28;20446;-71
2022/02/02 06:34:52;;;;;;;11.10;2.70;;;;;;;;;;5112974;28;20432;-71
2022/02/02 06:37:19;;;;;;;8.53;2.40;;;;;;;;;;5113800;28;20574;-71
2022/02/02 06:39:50;;;;;;;11.53;4.40;;;;;;;;;;5113130;28;20451;-72
2022/02/02 06:42:18;;;;;;;7.00;2.60;;;;;;;;;;5113751;28;20447;-71
2022/02/02 06:44:46;;;;;;;8.70;2.73;;;;;;;;;;5113573;28;20465;-71
2022/02/02 06:47:13;;;;;;;14.50;2.97;;;;;;;;;;5113901;28;20532;-71
2022/02/02 06:49:45;;;;;;;11.53;2.47;;;;;;;;;;5113398;28;20494;-71
2022/02/02 06:52:17;;;;;;;13.40;2.40;;;;;;;;;;5113454;27;20942;-71
2022/02/02 06:54:53;;;;;;;10.43;2.87;;;;;;;;;;5113158;28;20454;-71
2022/02/02 06:57:23;;;;;;;9.17;3.57;;;;;;;;;;5113415;28;20475;-71
2022/02/02 07:00:01;;;;;;;6.87;2.80;;;;;;;;;;5112818;28;20853;-71
2022/02/02 07:02:42;;;;;;;9.87;2.90;;;;;;;;;;5112985;28;20439;-70
2022/02/02 07:05:28;;;;;;;9.63;2.93;;;;;;;;;;5113675;28;20450;-71
2022/02/02 07:08:11;;;;;;;7.50;3.97;;;;;;;;;;5113556;28;20435;-71
2022/02/02 07:10:59;;;;;;;6.63;2.50;;;;;;;;;;5113022;28;20443;-71
2022/02/02 07:13:37;;;;;;;11.13;3.30;;;;;;;;;;5112826;28;20800;-71
2022/02/02 07:16:15;;;;;;;12.57;2.63;;;;;;;;;;5112740;28;20548;-71
2022/02/02 07:18:54;;;;;;;9.30;2.93;;;;;;;;;;5112532;28;20465;-71
2022/02/02 07:21:40;;;;;;;11.33;3.13;;;;;;;;;;5112989;28;20444;-72
2022/02/02 07:24:22;;;;;;;6.60;2.40;;;;;;;;;;5112964;28;20436;-71
2022/02/02 07:27:29;;;;;;;11.93;3.10;;;;;;;;;;5112323;28;20483;-71
2022/02/02 07:30:05;;;;;;;4.80;2.63;;;;;;;;;;5112970;28;21004;-71
2022/02/02 07:32:39;;;;;;;8.13;2.40;;;;;;;;;;5112585;28;20439;-72
2022/02/02 07:35:13;;;;;;;5.93;2.50;;;;;;;;;;5112839;28;20443;-71
2022/02/02 07:37:46;;;;;;;9.47;3.00;;;;;;;;;;5112368;28;20436;-71
2022/02/02 07:40:13;;;;;;;10.80;3.13;;;;;;;;;;5112664;28;20450;-73
2022/02/02 07:42:42;;;;;;;12.30;2.97;;;;;;;;;;5111544;28;20531;-72
2022/02/02 07:45:11;;;;;;;7.37;2.90;;;;;;;;;;5112849;28;20821;-72
2022/02/02 07:47:39;;;;;;;8.30;3.37;;;;;;;;;;5111695;27;20448;-71
2022/02/02 07:50:09;;;;;;;10.73;2.73;;;;;;;;;;5112815;28;20800;-71
2022/02/02 07:52:36;;;;;;;6.00;3.20;;;;;;;;;;5111295;28;20447;-71
2022/02/02 07:55:07;;;;;;;7.20;3.87;;;;;;;;;;5112608;28;20443;-71
2022/02/02 07:57:36;;;;;;;8.30;3.10;;;;;;;;;;5111193;28;20497;-71
2022/02/02 08:00:07;;;;;;;7.37;2.70;;;;;;;;;;5112598;28;20451;-71
2022/02/02 08:02:47;;;;;;;16.67;3.90;;;;;;;;;;5111271;28;20428;-71
2022/02/02 08:05:16;;;;;;;13.13;6.00;;;;;;;;;;5112557;28;20542;-71
2022/02/02 08:07:48;;;;;;;12.50;3.37;;;;;;;;;;5111750;28;20452;-71
2022/02/02 08:10:20;;;;;;;15.90;3.43;;;;;;;;;;5112320;28;20447;-70
2022/02/02 08:12:50;;;;;;;7.13;2.97;;;;;;;;;;5111571;28;20452;-71
2022/02/02 08:15:19;;;;;;;17.50;4.57;;;;;;;;;;5112168;27;21060;-71
2022/02/02 08:17:48;;;;;;;17.80;3.73;;;;;;;;;;5111746;28;20522;-71
2022/02/02 08:20:15;;;;;;;10.30;3.30;;;;;;;;;;5112153;28;20451;-71
2022/02/02 08:22:42;;;;;;;13.77;3.67;;;;;;;;;;5110963;28;20802;-71
2022/02/02 08:25:10;;;;;;;15.57;3.03;;;;;;;;;;5113913;28;21027;-71
2022/02/02 08:27:40;;;;;;;11.23;2.70;;;;;;;;;;5116122;28;20492;-72
2022/02/02 08:30:10;;;;;;;11.57;3.47;;;;;;;;;;5119954;28;20515;-71
2022/02/02 08:32:43;;;;;;;7.37;3.23;;;;;;;;;;5123123;28;20495;-71
2022/02/02 08:35:11;;;;;;;7.87;3.47;;;;;;;;;;5112900;28;20439;-71
2022/02/02 08:37:42;;;;;;;5.23;2.73;;;;;;;;;;5111171;28;20486;-71
2022/02/02 08:40:21;;;;;;;8.93;3.57;;;;;;;;;;5111604;28;20534;-70
2022/02/02 08:42:50;;;;;;;10.60;3.70;;;;;;;;;;5110572;28;20455;-70
2022/02/02 08:45:21;;;;;;;10.73;2.73;;;;;;;;;;5111386;28;20957;-70
2022/02/02 08:47:54;;;;;;;6.53;3.40;;;;;;;;;;5110804;28;20447;-68
2022/02/02 08:50:28;;;;;;;7.23;3.27;;;;;;;;;;5111892;28;20449;-67
2022/02/02 08:53:01;;;;;;;5.43;3.20;;;;;;;;;;5111216;28;20436;-67
2022/02/02 08:55:55;;;;;;;16.80;3.63;;;;;;;;;;5111144;28;20439;-67
2022/02/02 08:58:30;;;;;;;14.50;3.23;;;;;;;;;;5111874;28;20530;-67
2022/02/02 09:00:59;;;;;;;9.70;3.00;;;;;;;;;;5111882;28;20446;-67
2022/02/02 09:06:12;;;;;;;9.03;3.70;;;;;;;;;;5111339;28;20542;-67
2022/02/02 09:08:41;;;;;;;11.60;4.03;;;;;;;;;;5110747;28;20534;-67
2022/02/02 09:25:03;;;;;;;12.27;3.40;;;;;;;;;;5110009;28;20931;-68
2022/02/02 09:35:43;;;;;;;8.40;3.00;;;;;;;;;;5110332;28;20440;-68
2022/02/02 09:38:10;;;;;;;10.33;2.83;;;;;;;;;;5115478;28;20555;-68
2022/02/02 09:43:21;;;;;;;15.40;4.00;;;;;;;;;;5114555;27;20434;-68
2022/02/02 09:45:54;;;;;;;16.90;4.07;;;;;;;;;;5114528;28;20829;-68
2022/02/02 09:48:26;;;;;;;9.30;3.10;;;;;;;;;;5115578;28;20483;-67
2022/02/02 09:50:59;;;;;;;13.23;4.30;;;;;;;;;;5114580;28;20451;-68
2022/02/02 09:53:35;;;;;;;9.73;2.90;;;;;;;;;;5114757;27;20489;-68
2022/02/02 09:56:13;;;;;;;8.20;2.67;;;;;;;;;;5114814;28;20482;-68
2022/02/02 09:58:59;;;;;;;10.50;3.77;;;;;;;;;;5113750;28;21014;-68
2022/02/02 10:01:56;;;;;;;14.40;2.93;;;;;;;;;;5114893;28;20873;-68
2022/02/02 10:04:35;;;;;;;12.97;3.40;;;;;;;;;;5114580;28;20447;-68
2022/02/02 10:10:16;;;;;;;5.27;2.60;;;;;;;;;;5104305;28;20427;-68
2022/02/02 10:13:01;;;;;;;9.33;3.70;;;;;;;;;;5113248;28;20568;-68
2022/02/02 10:15:31;;;;;;;15.43;3.13;;;;;;;;;;5113942;28;20499;-68
2022/02/02 10:18:02;;;;;;;7.30;2.63;;;;;;;;;;5114484;28;20570;-68
2022/02/02 10:20:30;;;;;;;11.00;2.47;;;;;;;;;;5114405;28;20555;-68
2022/02/02 10:22:59;;;;;;;5.33;2.40;;;;;;;;;;5114456;28;20535;-68
2022/02/02 10:25:27;;;;;;;7.40;2.17;;;;;;;;;;5114799;28;20530;-68
2022/02/02 10:28:06;;;;;;;8.03;2.93;;;;;;;;;;5114589;28;20454;-68
2022/02/02 10:30:33;;;;;;;9.90;3.37;;;;;;;;;;5113352;28;20927;-68
2022/02/02 10:33:04;;;;;;;7.93;3.77;;;;;;;;;;5113525;28;20449;-68
2022/02/02 10:35:33;;;;;;;14.40;4.03;;;;;;;;;;5113314;28;20447;-68
2022/02/02 10:38:05;;;;;;;11.03;2.60;;;;;;;;;;5114007;28;20514;-68
2022/02/02 10:40:43;;;;;;;8.53;2.53;;;;;;;;;;5113549;28;20462;-68
2022/02/02 10:43:32;;;;;;;5.73;3.00;;;;;;;;;;5113366;28;20947;-68
2022/02/02 10:46:08;;;;;;;10.77;3.47;;;;;;;;;;5113572;28;20861;-68
2022/02/02 10:48:41;;;;;;;9.90;3.37;;;;;;;;;;5112760;28;20439;-68
2022/02/02 10:51:15;;;;;;;13.57;5.00;;;;;;;;;;5113922;28;20843;-68
2022/02/02 10:54:09;;;;;;;9.83;2.33;;;;;;;;;;5112740;28;20504;-68
2022/02/02 10:56:42;;;;;;;7.37;3.67;;;;;;;;;;5112873;28;20814;-68
2022/02/02 10:59:26;;;;;;;17.97;3.83;;;;;;;;;;5113846;28;20813;-68
2022/02/02 11:07:25;;;;;;;10.97;3.07;;;;;;;;;;5113755;28;20427;-69
2022/02/02 11:09:52;;;;;;;14.20;3.60;;;;;;;;;;5113970;27;20797;-68
2022/02/02 11:12:22;;;;;;;6.17;2.70;;;;;;;;;;5112684;27;20931;-68
2022/02/02 11:14:54;;;;;;;7.30;2.83;;;;;;;;;;5112740;28;20481;-69
2022/02/02 11:17:24;;;;;;;19.23;3.53;;;;;;;;;;5118499;28;20503;-68
2022/02/02 11:19:54;;;;;;;15.80;3.70;;;;;;;;;;5120735;28;20978;-69
2022/02/02 11:22:31;;;;;;;11.57;3.00;;;;;;;;;;5113793;28;20517;-68
2022/02/02 11:25:13;;;;;;;9.23;3.90;;;;;;;;;;5113287;28;20486;-69
2022/02/02 11:27:42;;;;;;;7.87;2.83;;;;;;;;;;5100041;28;20487;-68
2022/02/02 11:30:10;;;;;;;8.60;2.80;;;;;;;;;;5113222;28;20447;-68
2022/02/02 11:32:42;;;;;;;13.47;3.40;;;;;;;;;;5111863;27;20451;-68
2022/02/02 11:35:36;;;;;;;7.00;2.77;;;;;;;;;;5113143;28;20819;-68
2022/02/02 11:38:05;;;;;;;7.70;3.10;;;;;;;;;;5112981;28;20472;-69
2022/02/02 11:40:40;;;;;;;22.13;3.77;;;;;;;;;;5112105;28;20804;-69
2022/02/02 11:43:12;;;;;;;7.80;3.17;;;;;;;;;;5104399;28;20451;-69
2022/02/02 11:45:52;;;;;;;11.90;3.30;;;;;;;;;;5103554;28;20998;-69
2022/02/02 11:48:34;;;;;;;9.40;3.10;;;;;;;;;;5112746;27;20485;-70
2022/02/02 11:51:03;;;;;;;5.60;2.73;;;;;;;;;;5100167;28;20455;-70
2022/02/02 11:53:57;;;;;;;10.73;3.30;;;;;;;;;;5112027;28;20448;-70
2022/02/02 11:56:28;;;;;;;8.67;2.83;;;;;;;;;;5112547;28;20936;-70
2022/02/02 11:58:56;;;;;;;9.67;3.20;;;;;;;;;;5111596;28;20501;-70
2022/02/02 12:01:38;;;;;;;10.50;4.00;;;;;;;;;;5112045;28;20531;-69
2022/02/02 12:04:21;;;;;;;4.60;2.80;;;;;;;;;;5112339;28;20514;-70
2022/02/02 12:07:04;;;;;;;16.90;3.33;;;;;;;;;;5111759;28;20443;-70
2022/02/02 12:09:37;;;;;;;10.87;3.30;;;;;;;;;;5111584;27;20929;-70
2022/02/02 12:48:47;;;;;;;21.67;4.43;;;;;;;;;;5094269;28;20436;-70
2022/02/02 12:57:01;;;;;;;13.47;3.50;;;;;;;;;;5013515;28;20432;-70
2022/02/02 13:02:17;;;;;;;7.30;3.23;;;;;;;;;;5064038;28;20844;-70
2022/02/02 13:04:45;;;;;;;9.03;2.80;;;;;;;;;;5107041;28;20532;-70
2022/02/02 13:07:14;;;;;;;5.87;2.10;;;;;;;;;;5107949;28;20450;-70
2022/02/02 13:09:43;;;;;;;6.17;2.07;;;;;;;;;;5107200;28;20444;-70
2022/02/02 13:12:24;;;;;;;7.33;2.60;;;;;;;;;;5107492;28;20475;-71
2022/02/02 13:15:12;;;;;;;3.90;2.10;;;;;;;;;;5107724;28;20454;-71
2022/02/02 13:17:41;;;;;;;8.50;2.50;;;;;;;;;;5094941;28;20499;-70
2022/02/02 13:20:12;;;;;;;8.10;2.10;;;;;;;;;;5108328;28;20476;-70
2022/02/02 13:22:40;;;;;;;7.53;2.90;;;;;;;;;;5106730;28;20499;-70
2022/02/02 13:25:19;;;;;;;6.60;2.40;;;;;;;;;;5107356;28;20521;-72
2022/02/02 13:27:49;;;;;;;6.37;1.83;;;;;;;;;;5106360;28;20573;-70
2022/02/02 13:30:35;;;;;;;9.97;2.23;;;;;;;;;;5107370;28;20991;-70
2022/02/02 13:33:11;;;;;;;3.97;1.93;;;;;;;;;;5103103;28;20490;-70
2022/02/02 13:35:49;;;;;;;3.93;2.00;;;;;;;;;;5093255;28;20713;-71
2022/02/02 13:38:38;;;;;;;5.57;1.80;;;;;;;;;;5093432;28;20456;-71
2022/02/02 13:44:36;;;;;;;8.53;2.50;;;;;;;;;;4991567;28;20934;-71
2022/02/02 13:47:35;;;;;;;2.50;1.70;;;;;;;;;;4991792;28;20449;-71
2022/02/02 13:50:23;;;;;;;4.10;2.23;;;;;;;;;;5078134;28;20433;-71
2022/02/02 13:52:54;;;;;;;3.03;1.70;;;;;;;;;;5091712;28;20706;-71
2022/02/02 13:55:41;;;;;;;6.30;2.10;;;;;;;;;;5093617;28;20537;-71
2022/02/02 14:01:01;;;;;;;6.27;2.50;;;;;;;;;;5089969;28;20944;-72
2022/02/02 14:06:32;;;;;;;7.23;2.30;;;;;;;;;;5088177;28;20941;-73
2022/02/02 14:09:06;;;;;;;5.53;2.37;;;;;;;;;;5096868;28;20437;-73
2022/02/02 14:31:11;;;;;;;7.23;2.60;;;;;;;;;;5092835;28;20432;-71
2022/02/02 14:33:41;;;;;;;6.50;2.00;;;;;;;;;;5091729;28;20447;-71
2022/02/02 14:36:10;;;;;;;8.10;2.70;;;;;;;;;;5092544;28;20451;-71
2022/02/02 14:38:43;;;;;;;8.47;3.70;;;;;;;;;;5092457;28;20531;-72
2022/02/02 14:41:17;;;;;;;6.13;2.83;;;;;;;;;;5092367;28;20444;-71
2022/02/02 14:43:52;;;;;;;7.50;2.50;;;;;;;;;;5092077;28;20830;-71
2022/02/02 14:46:23;;;;;;;8.90;2.40;;;;;;;;;;5091554;28;20443;-71
2022/02/02 14:48:55;;;;;;;8.70;2.60;;;;;;;;;;5092150;28;20860;-71
2022/02/02 14:51:36;;;;;;;8.50;3.00;;;;;;;;;;5091509;28;20452;-71
2022/02/02 14:54:12;;;;;;;11.53;3.00;;;;;;;;;;5092756;28;20480;-71
2022/02/02 15:24:25;;;;;;;8.93;2.80;;;;;;;;;;5078969;28;20416;-71
2022/02/02 15:29:58;;;;;;;5.43;2.10;;;;;;;;;;4989424;28;20907;-71
2022/02/02 15:32:27;;;;;;;6.73;3.17;;;;;;;;;;5073755;28;20495;-71
2022/02/02 15:34:57;;;;;;;3.30;2.00;;;;;;;;;;5091255;28;20820;-71
2022/02/02 15:37:31;;;;;;;6.00;2.60;;;;;;;;;;5091591;28;20873;-71
2022/02/02 15:40:06;;;;;;;4.20;2.17;;;;;;;;;;5091534;28;20445;-71
2022/02/02 15:59:31;;;;;;;11.77;2.67;;;;;;;;;;5094241;28;20428;-71
2022/02/02 16:02:10;;;;;;;7.07;2.87;;;;;;;;;;5090971;28;20782;-71
2022/02/02 16:04:39;;;;;;;5.00;3.10;;;;;;;;;;5077824;28;20445;-71
2022/02/02 16:07:08;;;;;;;4.97;2.83;;;;;;;;;;5091861;28;20825;-71
2022/02/02 16:09:52;;;;;;;6.57;3.20;;;;;;;;;;5090702;28;20440;-71
2022/02/02 16:12:24;;;;;;;6.63;3.13;;;;;;;;;;5090460;28;20452;-71
2022/02/02 16:15:00;;;;;;;5.13;3.37;;;;;;;;;;5090952;28;20444;-71
2022/02/02 16:17:58;;;;;;;5.53;3.23;;;;;;;;;;5090884;28;20459;-70
2022/02/02 16:31:36;;;;;;;4.13;3.10;;;;;;;;;;5090372;28;20499;-71
2022/02/02 16:36:53;;;;;;;9.27;3.13;;;;;;;;;;5088960;28;20564;-71
2022/02/02 16:39:24;;;;;;;2.97;2.27;;;;;;;;;;5090324;28;20929;-71
2022/02/02 16:44:37;;;;;;;4.63;3.17;;;;;;;;;;5089941;28;20883;-70
2022/02/02 16:47:05;;;;;;;4.17;2.03;;;;;;;;;;5091477;28;20857;-71
2022/02/02 16:49:32;;;;;;;4.17;2.57;;;;;;;;;;5097210;28;20455;-70
2022/02/02 16:51:59;;;;;;;3.20;1.60;;;;;;;;;;5100616;28;20996;-71
2022/02/02 16:54:31;;;;;;;6.80;2.97;;;;;;;;;;5094598;28;20437;-70
2022/02/02 16:57:21;;;;;;;6.60;3.20;;;;;;;;;;5091339;28;20532;-71
2022/02/02 17:30:16;;;;;;;3.60;2.67;;;;;;;;;;5094110;28;20427;-71
2022/02/02 17:32:53;;;;;;;3.70;2.60;;;;;;;;;;5093187;28;20436;-71
2022/02/02 17:35:30;;;;;;;4.90;2.00;;;;;;;;;;5093918;28;20932;-71
2022/02/02 17:38:06;;;;;;;8.27;3.43;;;;;;;;;;5093736;28;20436;-70
2022/02/02 17:41:00;;;;;;;3.57;2.33;;;;;;;;;;5093506;28;20446;-71
2022/02/02 18:19:15;;;;;;;5.20;3.93;;;;;;;;;;5079729;28;20901;-72
2022/02/02 18:21:43;;;;;;;6.60;3.30;;;;;;;;;;5091778;28;20506;-72
2022/02/02 18:24:15;;;;;;;5.00;3.53;;;;;;;;;;5093346;28;20557;-73
2022/02/02 18:26:48;;;;;;;5.43;3.57;;;;;;;;;;5092153;28;20480;-70
2022/02/02 18:29:20;;;;;;;5.57;4.23;;;;;;;;;;5092581;28;20448;-73
2022/02/02 18:32:10;;;;;;;4.53;3.77;;;;;;;;;;5091483;28;20613;-71
2022/02/02 18:34:45;;;;;;;4.73;3.17;;;;;;;;;;5092039;28;20440;-71
2022/02/02 18:43:36;;;;;;;4.03;3.60;;;;;;;;;;5091698;28;20543;-71
2022/02/02 18:48:57;;;;;;;5.27;4.00;;;;;;;;;;5089294;28;21276;-72
2022/02/02 18:51:50;;;;;;;7.47;4.10;;;;;;;;;;5084907;28;20466;-70
2022/02/02 18:54:27;;;;;;;5.30;3.40;;;;;;;;;;5087684;28;20463;-70
2022/02/02 18:57:09;;;;;;;5.63;4.07;;;;;;;;;;5073257;28;20449;-70
2022/02/02 19:02:37;;;;;;;6.50;3.67;;;;;;;;;;5088284;28;20437;-71
2022/02/02 19:05:28;;;;;;;21.03;14.93;;;;;;;;;;5089011;28;21003;-72
2022/02/02 19:14:50;;;;;;;5.40;3.87;;;;;;;;;;5074736;28;20445;-71
2022/02/02 19:52:47;;;;;;;8.87;4.50;;;;;;;;;;5088124;28;20467;-70
2022/02/02 19:55:28;;;;;;;4.93;4.07;;;;;;;;;;5088127;28;20565;-70
2022/02/02 20:06:25;;;;;;;4.90;4.10;;;;;;;;;;5028047;28;20468;-70
2022/02/02 20:09:22;;;;;;;6.30;4.30;;;;;;;;;;5087573;28;20464;-70
2022/02/02 20:11:50;;;;;;;7.77;5.10;;;;;;;;;;5087269;28;20506;-70
2022/02/02 20:14:19;;;;;;;10.00;4.83;;;;;;;;;;5087575;28;20455;-70
2022/02/02 20:16:47;;;;;;;7.40;4.50;;;;;;;;;;5080955;28;20536;-70
2022/02/02 20:19:14;;;;;;;9.90;4.10;;;;;;;;;;5074889;28;20456;-71
2022/02/02 20:21:48;;;;;;;9.10;5.10;;;;;;;;;;5086582;28;20484;-71
2022/02/02 20:24:15;;;;;;;9.77;5.23;;;;;;;;;;5088132;28;20916;-71
2022/02/02 20:26:47;;;;;;;5.20;4.40;;;;;;;;;;5086821;28;20448;-71
2022/02/02 20:29:15;;;;;;;5.17;4.20;;;;;;;;;;5087847;28;20506;-70
2022/02/02 20:31:44;;;;;;;4.80;4.30;;;;;;;;;;5087001;28;20463;-70
2022/02/02 20:34:11;;;;;;;8.03;5.40;;;;;;;;;;5088726;28;20863;-71
2022/02/02 20:36:39;;;;;;;5.80;5.00;;;;;;;;;;5087580;28;20452;-71
2022/02/02 20:39:11;;;;;;;6.63;5.20;;;;;;;;;;5087635;28;20456;-70
2022/02/02 20:41:40;;;;;;;7.30;5.40;;;;;;;;;;5087063;28;20525;-71
2022/02/02 20:44:17;;;;;;;7.30;4.00;;;;;;;;;;5090079;28;20567;-70
2022/02/02 20:47:16;;;;;;;8.40;6.10;;;;;;;;;;5090460;28;20539;-71
2022/02/02 21:01:19;;;;;;;6.30;4.37;;;;;;;;;;5088286;28;20493;-70
2022/02/02 21:03:53;;;;;;;6.90;4.17;;;;;;;;;;5090696;28;20653;-70
2022/02/02 21:06:26;;;;;;;9.90;5.10;;;;;;;;;;5089830;28;20452;-71
2022/02/02 21:11:54;;;;;;;9.20;4.40;;;;;;;;;;5090314;28;20432;-70
2022/02/02 21:14:23;;;;;;;6.60;4.70;;;;;;;;;;5091291;28;20452;-70
2022/02/02 21:16:50;;;;;;;6.03;5.10;;;;;;;;;;5091387;28;20456;-69
2022/02/02 21:19:29;;;;;;;7.30;5.53;;;;;;;;;;5092699;28;21004;-70
2022/02/02 21:22:00;;;;;;;5.37;4.87;;;;;;;;;;5090383;28;20477;-70
2022/02/02 21:24:52;;;;;;;8.90;5.93;;;;;;;;;;5093321;28;20467;-70
2022/02/02 21:27:25;;;;;;;6.57;4.80;;;;;;;;;;5093402;28;20816;-70
2022/02/02 21:29:52;;;;;;;10.97;5.43;;;;;;;;;;5092784;28;20448;-71
2022/02/02 21:32:19;;;;;;;6.83;5.30;;;;;;;;;;5091638;28;20498;-71
2022/02/02 21:34:51;;;;;;;6.20;4.43;;;;;;;;;;5089239;28;20593;-71
2022/02/02 21:37:19;;;;;;;5.13;4.47;;;;;;;;;;5100049;28;20447;-71
2022/02/02 21:39:55;;;;;;;7.67;5.60;;;;;;;;;;5088172;28;20495;-71
2022/02/02 21:42:22;;;;;;;7.40;4.90;;;;;;;;;;5092541;28;20485;-71
2022/02/02 21:44:49;;;;;;;6.33;4.40;;;;;;;;;;5091834;28;20603;-71
2022/02/02 21:47:17;;;;;;;8.70;4.83;;;;;;;;;;5093509;28;20445;-70
2022/02/02 21:49:45;;;;;;;6.87;4.40;;;;;;;;;;5092745;28;20524;-71
2022/02/02 21:52:16;;;;;;;8.80;4.53;;;;;;;;;;5093189;28;20460;-70
2022/02/02 21:54:44;;;;;;;8.33;5.00;;;;;;;;;;5091590;28;20447;-71
2022/02/02 21:57:12;;;;;;;9.90;4.57;;;;;;;;;;5093342;28;20447;-71
2022/02/02 21:59:39;;;;;;;6.97;4.63;;;;;;;;;;5081751;28;20455;-70
2022/02/02 22:02:06;;;;;;;8.17;5.07;;;;;;;;;;5093510;28;20448;-71
2022/02/02 22:04:33;;;;;;;5.90;4.90;;;;;;;;;;5092372;28;20500;-71
2022/02/02 22:07:00;;;;;;;9.80;5.00;;;;;;;;;;5092630;28;20478;-71
2022/02/02 22:09:29;;;;;;;7.60;5.20;;;;;;;;;;5092735;28;20528;-70
2022/02/02 22:11:56;;;;;;;5.23;4.60;;;;;;;;;;5092494;28;20453;-70
2022/02/02 22:14:25;;;;;;;6.23;4.47;;;;;;;;;;5093016;28;20544;-70
2022/02/02 22:16:53;;;;;;;5.40;4.13;;;;;;;;;;5091592;28;20498;-70
2022/02/02 22:19:21;;;;;;;7.03;5.00;;;;;;;;;;5092236;28;20457;-70
2022/02/02 22:21:48;;;;;;;7.23;4.43;;;;;;;;;;5090905;28;21168;-70
2022/02/02 22:24:16;;;;;;;5.97;4.73;;;;;;;;;;5092595;28;21063;-70
2022/02/02 22:26:45;;;;;;;6.43;4.60;;;;;;;;;;5095745;28;20479;-70
2022/02/02 22:29:12;;;;;;;6.67;5.03;;;;;;;;;;5098549;28;20449;-70
2022/02/02 22:31:39;;;;;;;7.27;5.20;;;;;;;;;;5100578;28;20453;-70
2022/02/02 22:34:07;;;;;;;8.87;5.70;;;;;;;;;;5095367;28;20546;-70
2022/02/02 22:36:34;;;;;;;7.10;5.53;;;;;;;;;;5092196;28;20449;-71
2022/02/02 22:39:01;;;;;;;8.57;4.87;;;;;;;;;;5092624;28;20521;-71
2022/02/02 22:41:28;;;;;;;9.40;5.20;;;;;;;;;;5091521;28;20793;-71
2022/02/02 22:43:57;;;;;;;5.50;4.17;;;;;;;;;;5092345;28;20472;-70
2022/02/02 22:46:27;;;;;;;5.93;4.23;;;;;;;;;;5092385;28;20447;-71
2022/02/02 22:48:54;;;;;;;5.90;4.50;;;;;;;;;;5091701;28;20471;-70
2022/02/02 22:51:21;;;;;;;7.43;4.57;;;;;;;;;;5090878;28;20932;-71
2022/02/02 22:53:49;;;;;;;9.10;4.40;;;;;;;;;;5090681;28;20444;-71
2022/02/02 22:56:16;;;;;;;6.70;5.40;;;;;;;;;;5090161;28;20800;-71
2022/02/02 22:58:47;;;;;;;6.80;4.13;;;;;;;;;;5091494;28;20448;-70
2022/02/02 23:01:17;;;;;;;7.20;5.00;;;;;;;;;;5090252;28;20449;-70
2022/02/02 23:03:44;;;;;;;7.97;5.03;;;;;;;;;;5090686;28;20571;-70
2022/02/02 23:06:11;;;;;;;6.17;4.60;;;;;;;;;;5090726;28;20448;-70
2022/02/02 23:08:39;;;;;;;6.10;4.53;;;;;;;;;;5090873;28;20441;-70
2022/02/02 23:11:06;;;;;;;7.30;5.07;;;;;;;;;;5091428;28;20869;-70
2022/02/02 23:13:34;;;;;;;4.63;3.50;;;;;;;;;;5090775;28;20941;-70
2022/02/02 23:16:05;;;;;;;6.50;4.00;;;;;;;;;;5091176;28;20571;-70
2022/02/02 23:18:36;;;;;;;8.70;5.20;;;;;;;;;;5090194;28;20498;-70